Time;durP1;ratioP1;P1;durP2;ratioP2;P2;SDS_P1;SDS_P2;PMS_P1;PMS_P2;Temp;Humidity;BMP_temperature;BMP_pressure;BME280_temperature;BME280_humidity;BME280_pressure;Samples;Min_cycle;Max_cycle;Signal;HPM_P1;HPM_P2
2021/09/05 00:03:23;;;;;;;7.35;3.95;;;8.10;99.90;;;;;;3857822;37;20069;-67
2021/09/05 00:05:49;;;;;;;5.45;3.70;;;8.10;99.90;;;;;;4419699;32;20093;-66
2021/09/05 00:08:15;;;;;;;4.47;3.03;;;8.10;99.90;;;;;;4418729;32;20076;-67
2021/09/05 00:10:41;;;;;;;3.42;2.47;;;8.10;99.90;;;;;;4406843;32;20081;-65
2021/09/05 00:13:08;;;;;;;2.58;2.03;;;8.10;99.90;;;;;;4419489;32;20500;-65
2021/09/05 00:15:34;;;;;;;2.78;2.05;;;8.10;99.90;;;;;;4394249;32;20081;-66
2021/09/05 00:18:00;;;;;;;3.20;2.15;;;8.00;99.90;;;;;;4406002;32;20242;-66
2021/09/05 00:20:26;;;;;;;3.78;2.10;;;8.10;99.90;;;;;;4418680;32;20081;-65
2021/09/05 00:22:52;;;;;;;3.33;2.17;;;8.00;99.90;;;;;;4405676;32;20089;-66
2021/09/05 00:25:18;;;;;;;6.60;3.17;;;8.10;99.90;;;;;;4392978;32;20158;-65
2021/09/05 00:27:44;;;;;;;3.90;2.60;;;8.00;99.90;;;;;;4405218;32;20097;-65
2021/09/05 00:30:11;;;;;;;5.90;3.67;;;8.00;99.90;;;;;;4405368;32;20069;-65
2021/09/05 00:32:37;;;;;;;5.18;3.35;;;8.10;99.90;;;;;;4393346;32;20162;-65
2021/09/05 00:35:05;;;;;;;4.68;2.78;;;8.10;99.90;;;;;;4405667;32;20488;-65
2021/09/05 00:37:31;;;;;;;2.15;1.80;;;8.00;99.90;;;;;;4393363;32;20096;-65
2021/09/05 00:39:57;;;;;;;6.25;3.47;;;8.00;99.90;;;;;;4405184;32;20530;-66
2021/09/05 00:42:27;;;;;;;7.90;3.30;;;8.10;99.90;;;;;;4405509;32;20104;-66
2021/09/05 00:44:53;;;;;;;5.43;3.42;;;8.10;99.90;;;;;;4393863;32;20069;-67
2021/09/05 00:47:20;;;;;;;6.18;3.87;;;8.10;99.90;;;;;;4406400;32;20080;-66
2021/09/05 00:49:47;;;;;;;2.83;2.00;;;8.10;99.90;;;;;;4381253;32;20107;-65
2021/09/05 00:52:13;;;;;;;4.45;2.50;;;8.10;99.90;;;;;;4392831;32;20496;-65
2021/09/05 00:54:42;;;;;;;5.78;3.12;;;8.10;99.90;;;;;;4392871;32;20161;-65
2021/09/05 00:57:15;;;;;;;6.57;4.12;;;8.10;99.90;;;;;;4417919;32;20085;-65
2021/09/05 00:59:44;;;;;;;3.00;2.37;;;8.10;99.90;;;;;;4406055;32;20151;-66
2021/09/05 01:02:10;;;;;;;4.65;2.20;;;8.00;99.90;;;;;;4392975;32;20081;-66
2021/09/05 01:04:37;;;;;;;2.42;1.77;;;8.00;99.90;;;;;;4380303;32;20107;-65
2021/09/05 01:07:03;;;;;;;3.12;2.03;;;8.00;99.90;;;;;;4417842;32;20100;-65
2021/09/05 01:09:29;;;;;;;3.08;2.00;;;8.00;99.90;;;;;;4405287;32;20157;-65
2021/09/05 01:11:56;;;;;;;3.55;2.10;;;8.00;99.90;;;;;;4392645;32;20080;-65
2021/09/05 01:14:23;;;;;;;3.10;2.08;;;8.00;99.90;;;;;;4384569;32;20078;-65
2021/09/05 01:16:49;;;;;;;2.47;1.77;;;8.00;99.90;;;;;;4407379;32;20148;-65
2021/09/05 01:19:19;;;;;;;3.05;1.90;;;8.00;99.90;;;;;;4407366;32;20587;-65
2021/09/05 01:21:47;;;;;;;2.25;1.77;;;8.00;99.90;;;;;;4382554;32;20073;-65
2021/09/05 01:24:13;;;;;;;4.03;2.62;;;7.90;99.90;;;;;;4382740;32;20089;-66
2021/09/05 01:26:48;;;;;;;3.15;2.20;;;8.00;99.90;;;;;;4408378;32;20515;-65
2021/09/05 01:29:15;;;;;;;3.50;2.08;;;8.00;99.90;;;;;;4408273;32;20085;-64
2021/09/05 01:31:46;;;;;;;3.58;2.00;;;7.90;99.90;;;;;;4394770;32;20097;-66
2021/09/05 01:34:15;;;;;;;2.83;1.90;;;7.90;99.90;;;;;;4383626;32;20595;-65
2021/09/05 01:36:41;;;;;;;2.67;1.83;;;7.90;99.90;;;;;;4394669;32;20161;-65
2021/09/05 01:39:09;;;;;;;2.90;2.03;;;7.80;99.90;;;;;;4407397;32;20140;-65
2021/09/05 01:41:35;;;;;;;2.60;1.83;;;7.80;99.90;;;;;;4381834;32;20163;-66
2021/09/05 01:44:04;;;;;;;5.20;2.80;;;7.70;99.90;;;;;;4394504;32;20077;-66
2021/09/05 01:46:30;;;;;;;8.57;2.83;;;7.80;99.90;;;;;;4394514;32;20081;-66
2021/09/05 01:48:57;;;;;;;4.47;2.15;;;7.80;99.90;;;;;;4381827;32;20092;-65
2021/09/05 01:51:23;;;;;;;4.15;2.45;;;7.80;99.90;;;;;;4406524;32;20101;-65
2021/09/05 01:53:49;;;;;;;8.38;5.43;;;7.70;99.90;;;;;;4394095;32;20073;-65
2021/09/05 01:56:16;;;;;;;2.75;2.10;;;7.70;99.90;;;;;;4394600;32;20170;-65
2021/09/05 01:58:42;;;;;;;2.83;2.05;;;7.80;99.90;;;;;;4406511;32;20073;-67
2021/09/05 02:01:08;;;;;;;4.40;2.80;;;7.80;99.90;;;;;;4407660;32;20061;-66
2021/09/05 02:03:35;;;;;;;3.70;2.30;;;7.70;99.90;;;;;;4383110;32;20568;-66
2021/09/05 02:06:01;;;;;;;3.47;2.30;;;7.70;99.90;;;;;;4394550;32;20088;-66
2021/09/05 02:08:27;;;;;;;3.80;2.00;;;7.60;99.90;;;;;;4381542;32;20180;-65
2021/09/05 02:10:53;;;;;;;4.90;2.87;;;7.60;99.90;;;;;;4408065;32;20085;-65
2021/09/05 02:13:19;;;;;;;5.62;2.70;;;7.60;99.90;;;;;;4393769;32;20094;-65
2021/09/05 02:15:45;;;;;;;4.00;2.50;;;7.60;99.90;;;;;;4369194;32;20141;-66
2021/09/05 02:18:12;;;;;;;3.17;2.20;;;7.60;99.90;;;;;;4368995;32;20085;-65
2021/09/05 02:20:38;;;;;;;2.70;2.03;;;7.60;99.90;;;;;;4406392;32;20093;-66
2021/09/05 02:23:04;;;;;;;3.00;1.80;;;7.50;99.90;;;;;;4368720;32;20507;-65
2021/09/05 02:25:30;;;;;;;2.85;1.90;;;7.60;99.90;;;;;;4392800;32;20069;-65
2021/09/05 02:27:56;;;;;;;2.92;1.80;;;7.60;99.90;;;;;;4407740;32;20182;-65
2021/09/05 02:30:22;;;;;;;2.60;1.80;;;7.60;99.90;;;;;;4409515;32;20169;-65
2021/09/05 02:32:48;;;;;;;7.65;2.25;;;7.60;99.90;;;;;;4407289;32;20455;-66
2021/09/05 02:35:14;;;;;;;2.22;1.80;;;7.60;99.90;;;;;;4394430;32;20073;-65
2021/09/05 02:37:40;;;;;;;2.50;1.92;;;7.60;99.90;;;;;;4406908;32;20139;-65
2021/09/05 02:40:09;;;;;;;3.03;2.20;;;7.60;99.90;;;;;;4407435;32;20085;-67
2021/09/05 02:42:35;;;;;;;2.37;2.00;;;7.60;99.90;;;;;;4406204;32;20154;-65
2021/09/05 02:45:05;;;;;;;2.33;1.75;;;7.60;99.90;;;;;;4381087;32;20077;-65
2021/09/05 02:47:32;;;;;;;2.47;2.00;;;7.60;99.90;;;;;;4394167;32;20093;-66
2021/09/05 02:49:58;;;;;;;3.15;1.80;;;7.60;99.90;;;;;;4394318;32;20463;-65
2021/09/05 02:52:25;;;;;;;3.50;1.90;;;7.60;99.90;;;;;;4380999;32;20081;-66
2021/09/05 02:54:51;;;;;;;3.50;2.00;;;7.70;99.90;;;;;;4393415;32;20079;-65
2021/09/05 02:57:17;;;;;;;2.67;1.90;;;7.70;99.90;;;;;;4380757;32;20089;-65
2021/09/05 02:59:44;;;;;;;2.50;1.90;;;7.70;99.90;;;;;;4405862;32;20089;-66
2021/09/05 03:02:10;;;;;;;3.37;1.90;;;7.80;99.90;;;;;;4393100;32;20113;-65
2021/09/05 03:04:36;;;;;;;2.55;1.80;;;7.80;99.90;;;;;;4381766;32;20595;-65
2021/09/05 03:07:02;;;;;;;3.83;1.87;;;7.80;99.90;;;;;;4407585;32;20069;-65
2021/09/05 03:09:28;;;;;;;3.85;2.10;;;7.80;99.90;;;;;;4393057;32;20088;-65
2021/09/05 03:11:54;;;;;;;2.05;1.80;;;7.80;99.90;;;;;;4392908;32;20111;-65
2021/09/05 03:14:21;;;;;;;2.37;2.00;;;7.80;99.90;;;;;;4407068;32;20495;-65
2021/09/05 03:16:47;;;;;;;3.25;2.20;;;7.80;99.90;;;;;;4393816;32;20171;-65
2021/09/05 03:19:13;;;;;;;2.97;1.98;;;7.80;99.90;;;;;;4394135;32;20504;-65
2021/09/05 03:21:40;;;;;;;3.87;1.95;;;7.90;99.90;;;;;;4407526;32;20141;-65
2021/09/05 03:24:06;;;;;;;1.62;1.52;;;7.90;99.90;;;;;;4393413;32;20499;-65
2021/09/05 03:26:33;;;;;;;4.93;1.87;;;7.90;99.90;;;;;;4380647;32;20073;-66
2021/09/05 03:29:00;;;;;;;2.20;1.85;;;7.90;99.90;;;;;;4405734;32;20061;-65
2021/09/05 03:31:26;;;;;;;1.52;1.40;;;8.00;99.90;;;;;;4393973;32;20166;-66
2021/09/05 03:33:53;;;;;;;2.42;1.83;;;8.00;99.90;;;;;;4381594;32;20510;-65
2021/09/05 03:36:19;;;;;;;3.87;2.33;;;8.00;99.90;;;;;;4380626;32;20097;-65
2021/09/05 03:38:45;;;;;;;2.42;1.70;;;8.10;99.90;;;;;;4393055;32;20513;-65
2021/09/05 03:41:11;;;;;;;3.10;1.55;;;8.20;99.90;;;;;;4393058;32;20163;-66
2021/09/05 03:43:37;;;;;;;2.03;1.80;;;8.20;99.90;;;;;;4405246;32;20502;-66
2021/09/05 03:46:03;;;;;;;3.87;1.90;;;8.20;99.90;;;;;;4407963;32;20085;-65
2021/09/05 03:48:30;;;;;;;3.05;2.37;;;8.30;99.90;;;;;;4380201;32;20451;-65
2021/09/05 03:50:56;;;;;;;3.83;1.77;;;8.30;99.90;;;;;;4381422;32;20149;-65
2021/09/05 03:53:22;;;;;;;2.65;1.65;;;8.30;99.90;;;;;;4393466;32;20154;-64
2021/09/05 03:55:49;;;;;;;2.05;1.65;;;8.50;99.90;;;;;;4405337;32;20173;-65
2021/09/05 03:58:15;;;;;;;2.40;1.75;;;8.50;99.90;;;;;;4392736;32;20057;-66
2021/09/05 04:00:41;;;;;;;2.72;1.80;;;8.60;99.90;;;;;;4405405;32;20077;-65
2021/09/05 04:03:08;;;;;;;2.95;1.92;;;8.60;99.90;;;;;;4405983;32;20065;-65
2021/09/05 04:05:34;;;;;;;1.65;1.50;;;8.80;99.90;;;;;;4392616;32;20169;-65
2021/09/05 04:10:29;;;;;;;2.60;1.58;;;8.90;99.90;;;;;;4392920;32;20078;-65
2021/09/05 04:12:57;;;;;;;4.20;1.73;;;8.90;99.90;;;;;;4406363;32;20081;-65
2021/09/05 04:15:23;;;;;;;4.65;1.60;;;8.90;99.90;;;;;;4382766;32;20584;-65
2021/09/05 04:17:50;;;;;;;2.33;1.75;;;9.00;99.90;;;;;;4369171;32;20097;-65
2021/09/05 04:20:17;;;;;;;3.87;1.60;;;9.00;99.90;;;;;;4380107;32;20086;-69
2021/09/05 04:22:43;;;;;;;4.10;1.70;;;8.90;99.90;;;;;;4380157;32;20093;-65
2021/09/05 04:25:10;;;;;;;2.33;1.55;;;8.90;99.90;;;;;;4380334;32;20080;-65
2021/09/05 04:27:36;;;;;;;3.55;1.45;;;8.90;99.90;;;;;;4397725;32;20209;-65
2021/09/05 04:30:05;;;;;;;2.67;1.73;;;8.90;99.90;;;;;;4408096;32;20105;-66
2021/09/05 04:32:32;;;;;;;2.58;1.80;;;9.10;99.90;;;;;;4392887;32;20157;-65
2021/09/05 04:34:58;;;;;;;2.12;1.45;;;9.10;99.90;;;;;;4392409;32;20074;-65
2021/09/05 04:37:25;;;;;;;2.10;1.60;;;9.10;99.90;;;;;;4382598;32;20081;-64
2021/09/05 04:39:51;;;;;;;1.87;1.20;;;9.30;99.90;;;;;;4372887;32;20112;-66
2021/09/05 04:42:17;;;;;;;1.73;1.42;;;9.20;99.90;;;;;;4410401;32;20068;-64
2021/09/05 04:44:44;;;;;;;2.55;1.60;;;9.30;99.90;;;;;;4387191;32;20069;-64
2021/09/05 04:47:10;;;;;;;1.65;1.40;;;9.30;99.90;;;;;;4384446;32;20070;-66
2021/09/05 04:49:36;;;;;;;3.08;1.77;;;9.40;99.90;;;;;;4382147;32;20073;-65
2021/09/05 04:52:03;;;;;;;1.50;1.17;;;9.50;99.90;;;;;;4384014;32;20160;-64
2021/09/05 04:54:30;;;;;;;2.28;1.40;;;10.00;99.90;;;;;;4398056;32;20495;-64
2021/09/05 04:56:56;;;;;;;2.40;1.80;;;11.10;99.90;;;;;;4396149;32;20092;-66
2021/09/05 04:59:22;;;;;;;1.85;1.40;;;11.50;99.90;;;;;;4394930;32;20089;-65
2021/09/05 05:01:48;;;;;;;3.00;1.70;;;11.70;99.90;;;;;;4407157;32;20089;-64
2021/09/05 05:04:15;;;;;;;2.12;1.83;;;11.50;99.90;;;;;;4408172;32;20141;-64
2021/09/05 05:06:41;;;;;;;4.03;1.60;;;11.50;99.90;;;;;;4407752;32;20085;-64
2021/09/05 05:09:12;;;;;;;1.33;1.05;;;12.00;99.90;;;;;;4395452;32;20455;-64
2021/09/05 05:11:42;;;;;;;3.65;1.70;;;12.00;99.90;;;;;;4384187;32;20077;-66
2021/09/05 05:14:09;;;;;;;3.08;1.87;;;12.00;99.90;;;;;;4395143;32;20523;-65
2021/09/05 05:16:35;;;;;;;2.33;1.60;;;13.00;99.90;;;;;;4382659;32;20081;-66
2021/09/05 05:19:01;;;;;;;1.52;1.42;;;12.60;99.90;;;;;;4394680;32;20101;-65
2021/09/05 05:21:28;;;;;;;2.03;1.50;;;12.00;99.90;;;;;;4406956;32;20157;-66
2021/09/05 05:23:55;;;;;;;3.25;1.60;;;12.40;99.90;;;;;;4407558;32;20185;-65
2021/09/05 05:26:21;;;;;;;1.77;1.42;;;13.00;99.90;;;;;;4382385;32;20077;-64
2021/09/05 05:28:47;;;;;;;2.00;1.80;;;13.00;99.90;;;;;;4394502;32;20507;-65
2021/09/05 05:31:13;;;;;;;1.80;1.33;;;13.10;99.90;;;;;;4407447;32;20501;-65
2021/09/05 05:33:40;;;;;;;2.40;1.30;;;12.40;99.90;;;;;;4369750;32;20097;-65
2021/09/05 05:36:06;;;;;;;3.47;1.83;;;12.20;99.90;;;;;;4382296;32;20104;-64
2021/09/05 05:38:32;;;;;;;2.25;1.62;;;12.40;99.90;;;;;;4395465;32;20069;-66
2021/09/05 05:40:58;;;;;;;1.95;1.50;;;13.30;99.90;;;;;;4408142;32;20250;-65
2021/09/05 05:43:24;;;;;;;2.47;1.80;;;14.30;99.90;;;;;;4395122;32;20125;-64
2021/09/05 05:45:50;;;;;;;2.47;1.48;;;13.90;99.90;;;;;;4407478;32;20084;-64
2021/09/05 05:48:16;;;;;;;2.35;1.80;;;13.60;99.90;;;;;;4382071;32;20496;-65
2021/09/05 05:50:43;;;;;;;2.62;1.48;;;13.00;99.90;;;;;;4369642;32;20527;-64
2021/09/05 05:53:10;;;;;;;1.83;1.50;;;13.50;99.90;;;;;;4394892;32;20563;-65
2021/09/05 05:55:36;;;;;;;2.92;1.52;;;12.90;99.90;;;;;;4395744;32;20573;-65
2021/09/05 05:58:02;;;;;;;2.25;1.42;;;13.60;99.90;;;;;;4382160;32;20081;-65
2021/09/05 06:00:28;;;;;;;1.80;1.50;;;13.10;99.90;;;;;;4394433;32;20081;-65
2021/09/05 06:02:55;;;;;;;1.73;1.58;;;14.40;99.90;;;;;;4408005;32;20073;-65
2021/09/05 06:05:21;;;;;;;1.60;1.30;;;13.20;99.90;;;;;;4395977;32;20073;-66
2021/09/05 06:07:47;;;;;;;2.58;1.12;;;13.80;99.90;;;;;;4407518;32;20070;-65
2021/09/05 06:10:13;;;;;;;1.95;1.20;;;13.30;99.90;;;;;;4394628;32;20077;-66
2021/09/05 06:12:40;;;;;;;1.12;1.02;;;13.70;99.90;;;;;;4369513;32;20165;-66
2021/09/05 06:15:07;;;;;;;1.58;1.15;;;13.50;99.90;;;;;;4382346;32;20082;-66
2021/09/05 06:17:33;;;;;;;1.35;1.10;;;12.50;99.90;;;;;;4395122;32;20070;-65
2021/09/05 06:19:59;;;;;;;1.92;1.33;;;12.40;99.90;;;;;;4394943;32;20157;-65
2021/09/05 06:22:25;;;;;;;3.53;1.15;;;12.60;99.90;;;;;;4393400;32;20463;-65
2021/09/05 06:24:51;;;;;;;1.30;1.15;;;12.20;99.90;;;;;;4408536;32;20091;-66
2021/09/05 06:27:18;;;;;;;3.35;1.95;;;12.60;99.90;;;;;;4394148;32;20081;-65
2021/09/05 06:29:44;;;;;;;2.85;1.27;;;12.30;99.90;;;;;;4394084;32;20068;-65
2021/09/05 06:32:10;;;;;;;2.58;1.70;;;12.70;99.90;;;;;;4407900;32;20149;-66
2021/09/05 06:34:36;;;;;;;2.20;1.60;;;12.60;99.90;;;;;;4393521;32;20093;-65
2021/09/05 06:37:02;;;;;;;1.75;1.30;;;12.40;99.90;;;;;;4407657;32;20243;-65
2021/09/05 06:39:28;;;;;;;1.80;1.37;;;12.50;99.90;;;;;;4393713;32;20074;-65
2021/09/05 06:41:55;;;;;;;1.80;1.17;;;12.90;99.90;;;;;;4407583;32;20074;-67
2021/09/05 06:44:22;;;;;;;3.75;1.90;;;12.70;99.90;;;;;;4395457;32;20093;-65
2021/09/05 06:46:48;;;;;;;1.67;1.20;;;12.60;99.90;;;;;;4395212;32;20178;-66
2021/09/05 06:49:15;;;;;;;3.17;1.40;;;12.80;99.90;;;;;;4407217;32;20120;-65
2021/09/05 06:51:41;;;;;;;1.37;1.23;;;13.20;99.90;;;;;;4394508;32;20170;-65
2021/09/05 06:54:07;;;;;;;3.70;1.37;;;12.60;99.90;;;;;;4406783;32;20174;-65
2021/09/05 06:56:33;;;;;;;2.95;1.40;;;12.90;99.90;;;;;;4394237;32;20150;-65
2021/09/05 06:58:59;;;;;;;3.65;1.62;;;12.90;99.90;;;;;;4406075;32;20531;-65
2021/09/05 07:01:25;;;;;;;11.70;2.03;;;13.50;99.90;;;;;;4393026;32;20085;-66
2021/09/05 07:03:52;;;;;;;2.40;1.37;;;13.10;99.90;;;;;;4380774;32;20072;-66
2021/09/05 07:06:18;;;;;;;1.73;1.40;;;13.70;99.90;;;;;;4393032;32;20078;-65
2021/09/05 07:08:44;;;;;;;1.33;0.85;;;13.60;99.90;;;;;;4406075;32;20172;-65
2021/09/05 07:11:10;;;;;;;2.45;1.10;;;13.00;99.90;;;;;;4392989;32;20134;-65
2021/09/05 07:13:36;;;;;;;2.55;1.60;;;13.70;99.90;;;;;;4392877;32;20080;-66
2021/09/05 07:16:03;;;;;;;2.28;1.20;;;13.60;98.20;;;;;;4393023;32;20085;-65
2021/09/05 07:18:29;;;;;;;4.50;2.15;;;13.40;97.00;;;;;;4405728;32;20443;-66
2021/09/05 07:20:55;;;;;;;4.45;1.70;;;13.40;99.20;;;;;;4380823;32;20254;-66
2021/09/05 07:23:21;;;;;;;1.48;1.37;;;14.00;94.20;;;;;;4405337;32;20444;-65
2021/09/05 07:25:48;;;;;;;3.58;1.42;;;13.60;95.10;;;;;;4407249;32;20168;-66
2021/09/05 07:28:14;;;;;;;1.83;1.30;;;13.20;96.00;;;;;;4393895;32;20115;-67
2021/09/05 07:30:40;;;;;;;1.42;0.95;;;13.50;92.70;;;;;;4381405;32;20101;-65
2021/09/05 07:33:06;;;;;;;0.80;0.77;;;13.90;89.50;;;;;;4368513;32;20070;-65
2021/09/05 07:35:32;;;;;;;1.45;1.08;;;13.90;90.10;;;;;;4393492;32;20084;-66
2021/09/05 07:37:58;;;;;;;1.50;1.10;;;14.20;85.80;;;;;;4406377;32;20479;-66
2021/09/05 07:40:25;;;;;;;0.77;0.62;;;14.10;85.60;;;;;;4393236;32;20498;-65
2021/09/05 07:42:51;;;;;;;2.28;0.80;;;14.30;82.30;;;;;;4381670;32;20181;-65
2021/09/05 07:45:17;;;;;;;1.23;1.00;;;13.80;85.10;;;;;;4380710;32;20093;-65
2021/09/05 07:47:43;;;;;;;3.35;2.22;;;13.50;88.90;;;;;;4381075;32;20499;-65
2021/09/05 07:50:10;;;;;;;2.00;0.95;;;13.80;87.60;;;;;;4393438;32;20537;-64
2021/09/05 07:52:36;;;;;;;3.87;2.08;;;13.70;83.40;;;;;;4381026;32;20161;-65
2021/09/05 07:55:03;;;;;;;2.65;1.70;;;13.90;84.00;;;;;;4392938;32;20077;-65
2021/09/05 07:57:30;;;;;;;6.00;2.30;;;13.70;81.20;;;;;;4406005;32;20077;-67
2021/09/05 07:59:56;;;;;;;1.40;0.60;;;13.80;82.10;;;;;;4369014;32;20073;-65
2021/09/05 08:02:22;;;;;;;2.25;1.05;;;13.50;82.70;;;;;;4380981;32;20068;-66
2021/09/05 08:04:48;;;;;;;0.93;0.82;;;13.60;80.60;;;;;;4393708;32;20092;-65
2021/09/05 08:07:15;;;;;;;1.30;0.60;;;13.90;77.00;;;;;;4381822;32;20077;-65
2021/09/05 08:09:41;;;;;;;1.25;0.80;;;13.50;79.50;;;;;;4393013;32;20078;-65
2021/09/05 08:12:07;;;;;;;1.55;0.70;;;14.40;75.20;;;;;;4392310;32;20174;-65
2021/09/05 08:14:34;;;;;;;2.83;0.88;;;14.20;73.00;;;;;;4394445;32;20089;-65
2021/09/05 08:17:00;;;;;;;0.95;0.80;;;13.80;75.30;;;;;;4393664;32;20089;-65
2021/09/05 08:19:26;;;;;;;1.00;0.80;;;13.60;77.40;;;;;;4381444;32;20436;-65
2021/09/05 08:21:53;;;;;;;0.90;0.80;;;13.50;77.10;;;;;;4392983;32;20432;-65
2021/09/05 08:24:19;;;;;;;3.40;1.15;;;14.00;75.50;;;;;;4409561;32;20100;-65
2021/09/05 08:26:45;;;;;;;0.85;0.80;;;14.70;71.50;;;;;;4396651;32;20164;-66
2021/09/05 08:29:11;;;;;;;2.35;1.10;;;14.40;71.30;;;;;;4395733;32;20148;-65
2021/09/05 08:31:37;;;;;;;2.25;1.70;;;13.70;75.20;;;;;;4408975;32;20169;-65
2021/09/05 08:34:05;;;;;;;2.58;1.25;;;14.60;72.60;;;;;;4383787;32;20081;-66
2021/09/05 08:36:32;;;;;;;6.43;2.00;;;14.60;71.40;;;;;;4395860;32;20166;-66
2021/09/05 08:38:58;;;;;;;1.73;1.20;;;14.70;68.20;;;;;;4408991;32;20092;-65
2021/09/05 08:41:25;;;;;;;4.03;1.27;;;14.40;70.50;;;;;;4396241;32;20073;-66
2021/09/05 08:43:51;;;;;;;1.55;1.17;;;14.60;71.40;;;;;;4371320;32;20077;-65
2021/09/05 08:46:17;;;;;;;2.92;1.80;;;14.70;69.20;;;;;;4383482;32;20079;-66
2021/09/05 08:48:46;;;;;;;1.33;1.05;;;14.90;64.50;;;;;;4395926;32;20164;-65
2021/09/05 08:51:12;;;;;;;2.50;1.25;;;14.90;61.90;;;;;;4383348;32;20096;-66
2021/09/05 08:53:38;;;;;;;1.85;1.20;;;14.70;62.00;;;;;;4407482;32;20163;-65
2021/09/05 08:56:05;;;;;;;1.40;1.30;;;14.60;64.90;;;;;;4395235;32;20157;-65
2021/09/05 08:58:31;;;;;;;1.33;1.08;;;14.40;65.00;;;;;;4371604;32;20073;-65
2021/09/05 09:00:57;;;;;;;1.90;1.48;;;14.60;61.80;;;;;;4395151;32;20088;-65
2021/09/05 09:03:25;;;;;;;0.88;0.82;;;14.90;61.40;;;;;;4395481;32;20081;-65
2021/09/05 09:05:53;;;;;;;1.80;1.30;;;14.10;61.80;;;;;;4370616;32;20084;-66
2021/09/05 09:08:21;;;;;;;1.00;0.90;;;14.50;60.80;;;;;;4383186;32;20085;-65
2021/09/05 09:10:52;;;;;;;3.03;1.15;;;15.20;60.00;;;;;;4383294;32;20058;-66
2021/09/05 09:13:24;;;;;;;2.53;1.00;;;15.60;57.20;;;;;;4407612;32;20096;-66
2021/09/05 09:15:50;;;;;;;1.23;0.95;;;15.30;57.20;;;;;;4382958;32;20145;-66
2021/09/05 09:18:26;;;;;;;2.58;1.20;;;14.90;58.90;;;;;;4383426;32;20077;-65
2021/09/05 09:20:54;;;;;;;1.60;1.10;;;15.10;58.50;;;;;;4383210;32;20500;-65
2021/09/05 09:23:31;;;;;;;1.05;0.85;;;14.90;60.40;;;;;;4383167;32;20199;-65
2021/09/05 09:26:15;;;;;;;1.10;0.93;;;15.40;60.80;;;;;;4398462;32;20071;-67
2021/09/05 09:28:47;;;;;;;2.03;1.20;;;15.40;56.70;;;;;;4410845;32;20080;-66
2021/09/05 09:31:24;;;;;;;1.17;0.90;;;15.30;59.90;;;;;;4398339;32;20095;-66
2021/09/05 09:33:53;;;;;;;1.95;1.55;;;14.70;61.20;;;;;;4383004;32;20081;-65
2021/09/05 09:36:25;;;;;;;1.55;1.45;;;15.70;58.50;;;;;;4382887;32;20149;-64
2021/09/05 09:39:05;;;;;;;1.10;1.00;;;15.60;57.60;;;;;;4369786;32;20085;-65
2021/09/05 09:41:34;;;;;;;0.75;0.75;;;15.30;59.30;;;;;;4383447;32;20247;-67
2021/09/05 09:44:02;;;;;;;2.03;1.05;;;15.40;57.50;;;;;;4394596;32;20081;-65
2021/09/05 09:46:33;;;;;;;2.47;1.70;;;15.90;56.60;;;;;;4382267;32;20093;-65
2021/09/05 09:49:05;;;;;;;1.77;1.20;;;15.30;58.90;;;;;;4383053;32;20105;-69
2021/09/05 09:51:32;;;;;;;1.90;1.27;;;15.40;58.40;;;;;;4383965;32;20510;-65
2021/09/05 09:53:58;;;;;;;2.50;1.60;;;15.50;58.00;;;;;;4394777;32;20504;-66
2021/09/05 09:56:26;;;;;;;7.55;1.80;;;14.80;59.20;;;;;;4394428;32;20089;-65
2021/09/05 09:58:54;;;;;;;1.40;0.95;;;14.60;60.20;;;;;;4395037;32;20169;-65
2021/09/05 10:01:22;;;;;;;1.67;1.20;;;14.90;60.20;;;;;;4381868;32;20204;-65
2021/09/05 10:03:50;;;;;;;4.03;1.95;;;15.90;57.30;;;;;;4370455;32;20087;-66
2021/09/05 10:06:17;;;;;;;0.70;0.70;;;16.20;56.00;;;;;;4394887;32;20447;-66
2021/09/05 10:08:44;;;;;;;2.65;1.17;;;16.20;54.10;;;;;;4369658;32;20085;-65
2021/09/05 10:11:17;;;;;;;1.65;1.02;;;15.40;56.40;;;;;;4407882;32;20084;-66
2021/09/05 10:13:44;;;;;;;1.23;1.05;;;15.50;55.90;;;;;;4371548;32;20165;-65
2021/09/05 10:16:11;;;;;;;1.77;1.30;;;15.30;57.40;;;;;;4395258;32;20089;-66
2021/09/05 10:18:48;;;;;;;2.53;1.25;;;15.80;56.40;;;;;;4382115;32;20227;-65
2021/09/05 10:21:16;;;;;;;2.55;1.10;;;16.50;55.30;;;;;;4395583;32;20499;-65
2021/09/05 10:23:56;;;;;;;5.78;2.90;;;15.30;55.80;;;;;;4369665;32;20531;-65
2021/09/05 10:26:23;;;;;;;2.37;1.85;;;15.70;56.90;;;;;;4396455;32;20178;-66
2021/09/05 10:28:55;;;;;;;1.92;1.37;;;15.40;56.00;;;;;;4396493;32;20073;-67
2021/09/05 10:31:31;;;;;;;1.83;1.20;;;16.40;53.90;;;;;;4382759;32;20073;-66
2021/09/05 10:33:58;;;;;;;2.65;0.70;;;15.70;55.30;;;;;;4382481;32;20089;-66
2021/09/05 10:36:25;;;;;;;1.77;1.20;;;15.30;56.90;;;;;;4394416;32;20496;-66
2021/09/05 10:39:04;;;;;;;1.30;0.90;;;15.40;56.80;;;;;;4383979;32;20069;-65
2021/09/05 10:41:30;;;;;;;2.28;0.80;;;15.00;58.40;;;;;;4382833;32;20439;-65
2021/09/05 10:44:05;;;;;;;0.80;0.70;;;15.50;55.10;;;;;;4381085;32;20505;-66
2021/09/05 10:46:41;;;;;;;0.90;0.85;;;15.30;55.30;;;;;;4368189;32;20089;-65
2021/09/05 10:49:07;;;;;;;;;;;15.40;54.70;;;;;;4394775;32;20506;-66
2021/09/05 10:51:47;;;;;;;0.73;0.73;;;14.80;56.50;;;;;;4393513;32;19972;-65
2021/09/05 10:54:27;;;;;;;0.60;0.60;;;15.50;57.00;;;;;;4406503;32;20494;-66
2021/09/05 10:56:56;;;;;;;0.93;0.68;;;15.80;53.50;;;;;;4393508;32;20082;-66
2021/09/05 10:59:23;;;;;;;1.20;0.75;;;16.00;52.00;;;;;;4394471;32;20100;-65
2021/09/05 11:01:49;;;;;;;0.50;0.50;;;16.30;53.30;;;;;;4393375;32;20105;-67
2021/09/05 11:04:15;;;;;;;1.42;0.98;;;16.10;54.60;;;;;;4407447;32;20445;-66
2021/09/05 11:06:43;;;;;;;2.40;1.10;;;15.60;56.10;;;;;;4407897;32;20085;-66
2021/09/05 11:12:36;;;;;;;2.03;1.53;;;15.10;59.20;;;;;;4407161;32;20193;-65
2021/09/05 11:15:08;;;;;;;0.82;0.82;;;14.90;57.90;;;;;;4380899;32;20543;-66
2021/09/05 11:17:34;;;;;;;2.10;0.93;;;15.00;56.20;;;;;;4381460;32;20172;-65
2021/09/05 11:20:05;;;;;;;0.65;0.65;;;14.80;56.70;;;;;;4392929;32;20161;-66
2021/09/05 11:22:39;;;;;;;3.03;1.02;;;15.00;56.00;;;;;;4406016;32;20069;-66
2021/09/05 11:25:25;;;;;;;1.02;0.90;;;15.50;55.50;;;;;;4380744;32;20526;-65
2021/09/05 11:28:08;;;;;;;0.30;0.30;;;16.00;52.40;;;;;;4394518;32;20160;-66
2021/09/05 11:30:39;;;;;;;1.65;0.52;;;15.20;54.70;;;;;;4393513;32;20136;-66
2021/09/05 11:33:10;;;;;;;0.90;0.90;;;15.00;55.20;;;;;;4381660;32;20092;-66
2021/09/05 11:35:45;;;;;;;0.80;0.62;;;14.70;56.10;;;;;;4381034;32;20069;-65
2021/09/05 11:38:13;;;;;;;0.50;0.50;;;14.90;56.60;;;;;;4380583;32;20085;-66
2021/09/05 11:40:46;;;;;;;0.77;0.60;;;15.10;54.80;;;;;;4393081;32;20058;-65
2021/09/05 11:43:12;;;;;;;0.60;0.60;;;15.40;54.50;;;;;;4405750;32;20085;-65
2021/09/05 11:45:38;;;;;;;4.80;2.65;;;15.30;53.70;;;;;;4380667;32;20521;-66
2021/09/05 11:48:06;;;;;;;2.50;1.67;;;15.10;54.00;;;;;;4392876;32;20065;-65
2021/09/05 11:50:37;;;;;;;1.23;1.12;;;15.00;54.60;;;;;;4393461;32;20101;-65
2021/09/05 11:53:05;;;;;;;1.08;0.62;;;15.20;54.10;;;;;;4405979;32;20077;-65
2021/09/05 11:55:31;;;;;;;1.30;0.80;;;15.10;54.60;;;;;;4380223;32;20579;-65
2021/09/05 11:58:06;;;;;;;2.67;1.60;;;15.00;54.70;;;;;;4405288;32;20544;-66
2021/09/05 12:00:34;;;;;;;3.00;1.50;;;15.40;54.00;;;;;;4393676;32;20535;-65
2021/09/05 12:03:08;;;;;;;0.77;0.77;;;15.40;53.80;;;;;;4392411;32;20180;-64
2021/09/05 12:05:36;;;;;;;1.45;1.00;;;15.40;54.10;;;;;;4381254;32;20523;-65
2021/09/05 12:08:03;;;;;;;0.68;0.65;;;14.90;54.90;;;;;;4367840;32;20096;-65
2021/09/05 12:10:30;;;;;;;3.05;1.50;;;14.90;54.50;;;;;;4396387;32;20614;-65
2021/09/05 12:13:06;;;;;;;1.70;1.25;;;14.80;54.60;;;;;;4367981;32;20112;-65
2021/09/05 12:15:36;;;;;;;3.80;1.30;;;15.40;53.60;;;;;;4393216;32;20088;-66
2021/09/05 12:18:14;;;;;;;0.62;0.60;;;15.50;53.00;;;;;;4369370;32;20100;-66
2021/09/05 12:20:42;;;;;;;1.30;1.02;;;15.60;51.50;;;;;;4382997;32;20065;-66
2021/09/05 12:23:25;;;;;;;1.33;0.62;;;15.90;52.60;;;;;;4380465;32;20540;-65
2021/09/05 12:25:55;;;;;;;0.70;0.70;;;15.60;53.50;;;;;;4393884;32;20077;-65
2021/09/05 12:28:24;;;;;;;3.58;1.80;;;15.10;55.20;;;;;;4392713;32;20087;-65
2021/09/05 12:30:58;;;;;;;2.22;1.35;;;15.00;55.50;;;;;;4380120;32;20074;-65
2021/09/05 12:33:28;;;;;;;3.17;2.15;;;14.90;55.30;;;;;;4368103;32;20080;-64
2021/09/05 12:36:05;;;;;;;1.67;1.20;;;15.10;55.20;;;;;;4407209;32;20081;-65
2021/09/05 12:38:33;;;;;;;1.42;1.25;;;15.50;53.40;;;;;;4394256;32;20572;-65
2021/09/05 12:41:14;;;;;;;8.63;1.10;;;15.50;53.50;;;;;;4380216;32;20179;-65
2021/09/05 12:43:43;;;;;;;0.88;0.57;;;15.40;53.10;;;;;;4401310;32;20082;-66
2021/09/05 12:46:10;;;;;;;0.70;0.60;;;15.10;54.00;;;;;;4393622;32;20081;-65
2021/09/05 12:48:38;;;;;;;5.32;3.60;;;15.20;54.30;;;;;;4392645;32;20061;-65
2021/09/05 12:51:11;;;;;;;1.48;0.90;;;15.00;55.10;;;;;;4393744;32;20073;-66
2021/09/05 12:53:50;;;;;;;0.85;0.68;;;15.00;55.60;;;;;;4380450;32;20178;-65
2021/09/05 12:56:16;;;;;;;0.98;0.50;;;14.90;55.30;;;;;;4393894;32;20150;-65
2021/09/05 12:58:42;;;;;;;0.90;0.62;;;15.20;55.70;;;;;;4393331;32;20084;-65
2021/09/05 13:01:28;;;;;;;2.67;0.70;;;15.40;55.10;;;;;;4392352;32;20066;-66